sensor_id;sensor_type;location;lat;lon;timestamp;P1;durP1;ratioP1;P2;durP2;ratioP2
75303;SDS011;64042;50.916;6.988;2022-10-16T00:02:20;6.27;;;5.77;;
75303;SDS011;64042;50.916;6.988;2022-10-16T00:04:45;5.30;;;5.00;;
75303;SDS011;64042;50.916;6.988;2022-10-16T00:07:11;6.20;;;5.72;;
75303;SDS011;64042;50.916;6.988;2022-10-16T00:09:36;5.10;;;4.80;;
75303;SDS011;64042;50.916;6.988;2022-10-16T00:12:01;5.00;;;4.70;;
75303;SDS011;64042;50.916;6.988;2022-10-16T00:14:28;5.30;;;4.90;;
75303;SDS011;64042;50.916;6.988;2022-10-16T00:16:54;5.95;;;5.60;;
75303;SDS011;64042;50.916;6.988;2022-10-16T00:19:19;5.10;;;4.80;;
75303;SDS011;64042;50.916;6.988;2022-10-16T00:21:44;8.43;;;8.03;;
75303;SDS011;64042;50.916;6.988;2022-10-16T00:24:10;6.23;;;5.83;;
75303;SDS011;64042;50.916;6.988;2022-10-16T00:26:35;6.05;;;5.75;;
75303;SDS011;64042;50.916;6.988;2022-10-16T00:29:02;5.85;;;5.45;;
75303;SDS011;64042;50.916;6.988;2022-10-16T00:31:28;5.75;;;5.43;;
75303;SDS011;64042;50.916;6.988;2022-10-16T00:33:54;4.78;;;4.47;;
75303;SDS011;64042;50.916;6.988;2022-10-16T00:36:21;5.72;;;5.43;;
75303;SDS011;64042;50.916;6.988;2022-10-16T00:38:49;6.32;;;5.93;;
75303;SDS011;64042;50.916;6.988;2022-10-16T00:41:17;5.72;;;5.43;;
75303;SDS011;64042;50.916;6.988;2022-10-16T00:48:45;6.43;;;6.03;;
75303;SDS011;64042;50.916;6.988;2022-10-16T00:51:13;4.95;;;4.65;;
75303;SDS011;64042;50.916;6.988;2022-10-16T00:53:39;6.07;;;5.68;;
75303;SDS011;64042;50.916;6.988;2022-10-16T00:56:05;5.45;;;5.15;;
75303;SDS011;64042;50.916;6.988;2022-10-16T00:58:30;5.63;;;5.32;;
75303;SDS011;64042;50.916;6.988;2022-10-16T01:00:56;5.57;;;5.18;;
75303;SDS011;64042;50.916;6.988;2022-10-16T01:03:26;5.53;;;5.20;;
75303;SDS011;64042;50.916;6.988;2022-10-16T01:06:03;5.18;;;4.88;;
75303;SDS011;64042;50.916;6.988;2022-10-16T01:08:43;5.70;;;5.40;;
75303;SDS011;64042;50.916;6.988;2022-10-16T01:13:53;5.97;;;5.68;;
75303;SDS011;64042;50.916;6.988;2022-10-16T01:16:23;6.57;;;6.18;;
75303;SDS011;64042;50.916;6.988;2022-10-16T01:18:55;6.30;;;5.90;;
75303;SDS011;64042;50.916;6.988;2022-10-16T01:21:26;6.05;;;5.65;;
75303;SDS011;64042;50.916;6.988;2022-10-16T01:24:06;5.95;;;5.65;;
75303;SDS011;64042;50.916;6.988;2022-10-16T01:29:25;6.28;;;5.97;;
75303;SDS011;64042;50.916;6.988;2022-10-16T01:31:56;6.32;;;5.93;;
75303;SDS011;64042;50.916;6.988;2022-10-16T01:34:30;3.80;;;3.55;;
75303;SDS011;64042;50.916;6.988;2022-10-16T01:37:05;5.45;;;5.15;;
75303;SDS011;64042;50.916;6.988;2022-10-16T01:39:35;5.85;;;5.55;;
75303;SDS011;64042;50.916;6.988;2022-10-16T01:42:08;5.80;;;5.50;;
75303;SDS011;64042;50.916;6.988;2022-10-16T01:44:36;6.18;;;5.78;;
75303;SDS011;64042;50.916;6.988;2022-10-16T01:47:02;4.90;;;4.60;;
75303;SDS011;64042;50.916;6.988;2022-10-16T01:49:30;6.22;;;5.82;;
75303;SDS011;64042;50.916;6.988;2022-10-16T01:51:58;6.22;;;5.82;;
75303;SDS011;64042;50.916;6.988;2022-10-16T01:54:25;5.25;;;4.95;;
75303;SDS011;64042;50.916;6.988;2022-10-16T01:56:53;5.38;;;5.07;;
75303;SDS011;64042;50.916;6.988;2022-10-16T01:59:20;5.68;;;5.28;;
75303;SDS011;64042;50.916;6.988;2022-10-16T02:01:56;4.13;;;3.83;;
75303;SDS011;64042;50.916;6.988;2022-10-16T02:04:26;5.05;;;4.75;;
75303;SDS011;64042;50.916;6.988;2022-10-16T02:06:53;5.53;;;5.22;;
75303;SDS011;64042;50.916;6.988;2022-10-16T02:09:19;6.20;;;5.82;;
75303;SDS011;64042;50.916;6.988;2022-10-16T02:11:44;5.22;;;4.93;;
75303;SDS011;64042;50.916;6.988;2022-10-16T02:14:09;5.53;;;5.22;;
75303;SDS011;64042;50.916;6.988;2022-10-16T02:16:39;5.83;;;5.53;;
75303;SDS011;64042;50.916;6.988;2022-10-16T02:19:05;5.38;;;5.07;;
75303;SDS011;64042;50.916;6.988;2022-10-16T02:21:54;4.90;;;4.57;;
75303;SDS011;64042;50.916;6.988;2022-10-16T02:24:31;5.93;;;5.63;;
75303;SDS011;64042;50.916;6.988;2022-10-16T02:29:30;6.32;;;5.93;;
75303;SDS011;64042;50.916;6.988;2022-10-16T02:31:57;4.75;;;4.45;;
75303;SDS011;64042;50.916;6.988;2022-10-16T02:34:25;6.13;;;5.72;;
75303;SDS011;64042;50.916;6.988;2022-10-16T02:36:51;3.78;;;3.58;;
75303;SDS011;64042;50.916;6.988;2022-10-16T02:39:19;5.07;;;4.78;;
75303;SDS011;64042;50.916;6.988;2022-10-16T02:41:45;5.75;;;5.38;;
75303;SDS011;64042;50.916;6.988;2022-10-16T02:44:10;5.68;;;5.38;;
75303;SDS011;64042;50.916;6.988;2022-10-16T02:46:36;5.68;;;5.38;;
75303;SDS011;64042;50.916;6.988;2022-10-16T02:49:01;6.53;;;6.20;;
75303;SDS011;64042;50.916;6.988;2022-10-16T02:51:26;5.00;;;4.75;;
75303;SDS011;64042;50.916;6.988;2022-10-16T02:53:52;4.73;;;4.43;;
75303;SDS011;64042;50.916;6.988;2022-10-16T02:56:17;5.32;;;5.03;;
75303;SDS011;64042;50.916;6.988;2022-10-16T02:58:42;5.00;;;4.70;;
75303;SDS011;64042;50.916;6.988;2022-10-16T03:01:08;4.50;;;4.20;;
75303;SDS011;64042;50.916;6.988;2022-10-16T03:03:33;5.38;;;5.07;;
75303;SDS011;64042;50.916;6.988;2022-10-16T03:05:58;5.00;;;4.70;;
75303;SDS011;64042;50.916;6.988;2022-10-16T03:08:24;4.63;;;4.38;;
75303;SDS011;64042;50.916;6.988;2022-10-16T03:10:50;5.13;;;4.88;;
75303;SDS011;64042;50.916;6.988;2022-10-16T03:13:16;4.97;;;4.70;;
75303;SDS011;64042;50.916;6.988;2022-10-16T03:15:41;4.65;;;4.38;;
75303;SDS011;64042;50.916;6.988;2022-10-16T03:18:06;4.95;;;4.65;;
75303;SDS011;64042;50.916;6.988;2022-10-16T03:20:32;5.07;;;4.78;;
75303;SDS011;64042;50.916;6.988;2022-10-16T03:22:57;4.28;;;3.97;;
75303;SDS011;64042;50.916;6.988;2022-10-16T03:25:22;4.88;;;4.57;;
75303;SDS011;64042;50.916;6.988;2022-10-16T03:27:48;4.75;;;4.45;;
75303;SDS011;64042;50.916;6.988;2022-10-16T03:30:13;4.60;;;4.17;;
75303;SDS011;64042;50.916;6.988;2022-10-16T03:32:38;4.38;;;4.10;;
75303;SDS011;64042;50.916;6.988;2022-10-16T03:35:04;4.77;;;4.47;;
75303;SDS011;64042;50.916;6.988;2022-10-16T03:37:29;4.78;;;4.47;;
75303;SDS011;64042;50.916;6.988;2022-10-16T03:39:55;3.47;;;3.27;;
75303;SDS011;64042;50.916;6.988;2022-10-16T03:42:20;6.03;;;5.73;;
75303;SDS011;64042;50.916;6.988;2022-10-16T03:44:45;6.05;;;5.68;;
75303;SDS011;64042;50.916;6.988;2022-10-16T03:47:10;5.23;;;4.93;;
75303;SDS011;64042;50.916;6.988;2022-10-16T03:49:36;5.13;;;4.83;;
75303;SDS011;64042;50.916;6.988;2022-10-16T03:52:01;4.40;;;4.17;;
75303;SDS011;64042;50.916;6.988;2022-10-16T03:54:26;4.03;;;3.72;;
75303;SDS011;64042;50.916;6.988;2022-10-16T03:56:52;5.43;;;5.13;;
75303;SDS011;64042;50.916;6.988;2022-10-16T03:59:17;4.30;;;4.10;;
75303;SDS011;64042;50.916;6.988;2022-10-16T04:01:42;4.43;;;4.23;;
75303;SDS011;64042;50.916;6.988;2022-10-16T04:04:08;4.45;;;4.25;;
75303;SDS011;64042;50.916;6.988;2022-10-16T04:06:33;4.40;;;4.13;;
75303;SDS011;64042;50.916;6.988;2022-10-16T04:08:59;4.57;;;4.27;;
75303;SDS011;64042;50.916;6.988;2022-10-16T04:11:24;4.55;;;4.25;;
75303;SDS011;64042;50.916;6.988;2022-10-16T04:13:49;5.63;;;5.32;;
75303;SDS011;64042;50.916;6.988;2022-10-16T04:16:14;5.10;;;4.80;;
75303;SDS011;64042;50.916;6.988;2022-10-16T04:18:40;2.95;;;2.75;;
75303;SDS011;64042;50.916;6.988;2022-10-16T04:21:05;2.63;;;2.53;;
75303;SDS011;64042;50.916;6.988;2022-10-16T04:23:31;4.65;;;4.38;;
75303;SDS011;64042;50.916;6.988;2022-10-16T04:25:57;4.97;;;4.70;;
75303;SDS011;64042;50.916;6.988;2022-10-16T04:28:22;5.22;;;4.93;;
75303;SDS011;64042;50.916;6.988;2022-10-16T04:30:47;4.87;;;4.57;;
75303;SDS011;64042;50.916;6.988;2022-10-16T04:33:13;5.10;;;4.80;;
75303;SDS011;64042;50.916;6.988;2022-10-16T04:35:38;5.22;;;4.93;;
75303;SDS011;64042;50.916;6.988;2022-10-16T04:38:04;2.80;;;2.60;;
75303;SDS011;64042;50.916;6.988;2022-10-16T04:40:29;5.22;;;4.97;;
75303;SDS011;64042;50.916;6.988;2022-10-16T04:42:57;4.72;;;4.50;;
75303;SDS011;64042;50.916;6.988;2022-10-16T04:45:23;4.25;;;4.05;;
75303;SDS011;64042;50.916;6.988;2022-10-16T04:47:48;4.33;;;4.10;;
75303;SDS011;64042;50.916;6.988;2022-10-16T04:50:13;5.53;;;5.07;;
75303;SDS011;64042;50.916;6.988;2022-10-16T04:52:39;4.53;;;4.32;;
75303;SDS011;64042;50.916;6.988;2022-10-16T04:55:04;4.63;;;4.43;;
75303;SDS011;64042;50.916;6.988;2022-10-16T04:57:30;4.45;;;4.25;;
75303;SDS011;64042;50.916;6.988;2022-10-16T04:59:55;4.63;;;4.43;;
75303;SDS011;64042;50.916;6.988;2022-10-16T05:02:20;4.68;;;4.43;;
75303;SDS011;64042;50.916;6.988;2022-10-16T05:04:46;4.75;;;4.55;;
75303;SDS011;64042;50.916;6.988;2022-10-16T05:07:11;4.45;;;4.25;;
75303;SDS011;64042;50.916;6.988;2022-10-16T05:09:36;2.73;;;2.53;;
75303;SDS011;64042;50.916;6.988;2022-10-16T05:12:02;5.03;;;4.83;;
75303;SDS011;64042;50.916;6.988;2022-10-16T05:14:28;3.85;;;3.65;;
75303;SDS011;64042;50.916;6.988;2022-10-16T05:16:53;4.27;;;3.97;;
75303;SDS011;64042;50.916;6.988;2022-10-16T05:19:18;4.33;;;4.13;;
75303;SDS011;64042;50.916;6.988;2022-10-16T05:21:44;3.72;;;3.53;;
75303;SDS011;64042;50.916;6.988;2022-10-16T05:24:09;4.87;;;4.67;;
75303;SDS011;64042;50.916;6.988;2022-10-16T05:26:34;4.47;;;4.28;;
75303;SDS011;64042;50.916;6.988;2022-10-16T05:29:00;4.77;;;4.47;;
75303;SDS011;64042;50.916;6.988;2022-10-16T05:31:25;7.43;;;7.03;;
75303;SDS011;64042;50.916;6.988;2022-10-16T05:33:50;6.63;;;6.22;;
75303;SDS011;64042;50.916;6.988;2022-10-16T05:36:16;5.37;;;5.07;;
75303;SDS011;64042;50.916;6.988;2022-10-16T05:38:43;5.15;;;4.85;;
75303;SDS011;64042;50.916;6.988;2022-10-16T05:41:08;4.55;;;4.20;;
75303;SDS011;64042;50.916;6.988;2022-10-16T05:43:33;6.13;;;5.63;;
75303;SDS011;64042;50.916;6.988;2022-10-16T05:46:03;5.57;;;5.20;;
75303;SDS011;64042;50.916;6.988;2022-10-16T05:48:29;4.55;;;4.15;;
75303;SDS011;64042;50.916;6.988;2022-10-16T05:50:58;5.13;;;4.78;;
75303;SDS011;64042;50.916;6.988;2022-10-16T05:53:29;4.22;;;3.92;;
75303;SDS011;64042;50.916;6.988;2022-10-16T05:55:55;4.32;;;4.03;;
75303;SDS011;64042;50.916;6.988;2022-10-16T05:58:21;5.28;;;4.88;;
75303;SDS011;64042;50.916;6.988;2022-10-16T06:00:52;4.47;;;4.18;;
75303;SDS011;64042;50.916;6.988;2022-10-16T06:03:21;5.38;;;4.90;;
75303;SDS011;64042;50.916;6.988;2022-10-16T06:05:47;5.05;;;4.60;;
75303;SDS011;64042;50.916;6.988;2022-10-16T06:08:12;5.03;;;4.72;;
75303;SDS011;64042;50.916;6.988;2022-10-16T06:10:37;5.13;;;4.77;;
75303;SDS011;64042;50.916;6.988;2022-10-16T06:13:02;5.20;;;4.87;;
75303;SDS011;64042;50.916;6.988;2022-10-16T06:15:28;4.40;;;4.10;;
75303;SDS011;64042;50.916;6.988;2022-10-16T06:17:53;5.30;;;4.90;;
75303;SDS011;64042;50.916;6.988;2022-10-16T06:20:18;4.90;;;4.50;;
75303;SDS011;64042;50.916;6.988;2022-10-16T06:22:43;5.17;;;4.30;;
75303;SDS011;64042;50.916;6.988;2022-10-16T06:25:09;4.40;;;3.83;;
75303;SDS011;64042;50.916;6.988;2022-10-16T06:27:34;4.53;;;4.13;;
75303;SDS011;64042;50.916;6.988;2022-10-16T06:29:59;5.10;;;4.70;;
75303;SDS011;64042;50.916;6.988;2022-10-16T06:32:24;5.03;;;4.63;;
75303;SDS011;64042;50.916;6.988;2022-10-16T06:34:50;4.63;;;4.33;;
75303;SDS011;64042;50.916;6.988;2022-10-16T06:37:15;4.83;;;4.27;;
75303;SDS011;64042;50.916;6.988;2022-10-16T06:39:40;4.63;;;4.33;;
75303;SDS011;64042;50.916;6.988;2022-10-16T06:42:06;4.87;;;4.57;;
75303;SDS011;64042;50.916;6.988;2022-10-16T06:44:31;5.07;;;4.77;;
75303;SDS011;64042;50.916;6.988;2022-10-16T06:46:56;6.27;;;5.10;;
75303;SDS011;64042;50.916;6.988;2022-10-16T06:49:21;5.33;;;4.93;;
75303;SDS011;64042;50.916;6.988;2022-10-16T06:51:48;6.50;;;4.53;;
75303;SDS011;64042;50.916;6.988;2022-10-16T06:54:14;9.85;;;4.85;;
75303;SDS011;64042;50.916;6.988;2022-10-16T06:56:40;8.18;;;5.50;;
75303;SDS011;64042;50.916;6.988;2022-10-16T06:59:05;7.53;;;5.73;;
75303;SDS011;64042;50.916;6.988;2022-10-16T07:01:30;8.77;;;5.35;;
75303;SDS011;64042;50.916;6.988;2022-10-16T07:03:56;9.30;;;6.13;;
75303;SDS011;64042;50.916;6.988;2022-10-16T07:06:22;7.28;;;5.13;;
75303;SDS011;64042;50.916;6.988;2022-10-16T07:08:49;10.40;;;4.18;;
75303;SDS011;64042;50.916;6.988;2022-10-16T07:11:16;9.93;;;5.80;;
75303;SDS011;64042;50.916;6.988;2022-10-16T07:13:42;8.02;;;5.30;;
75303;SDS011;64042;50.916;6.988;2022-10-16T07:16:10;6.15;;;4.80;;
75303;SDS011;64042;50.916;6.988;2022-10-16T07:18:37;9.57;;;4.93;;
75303;SDS011;64042;50.916;6.988;2022-10-16T07:21:04;11.32;;;4.57;;
75303;SDS011;64042;50.916;6.988;2022-10-16T07:23:31;6.82;;;4.22;;
75303;SDS011;64042;50.916;6.988;2022-10-16T07:25:56;8.02;;;5.38;;
75303;SDS011;64042;50.916;6.988;2022-10-16T07:28:21;5.63;;;4.70;;
75303;SDS011;64042;50.916;6.988;2022-10-16T07:30:47;8.25;;;4.32;;
75303;SDS011;64042;50.916;6.988;2022-10-16T07:33:12;8.02;;;5.63;;
75303;SDS011;64042;50.916;6.988;2022-10-16T07:35:37;7.73;;;6.23;;
75303;SDS011;64042;50.916;6.988;2022-10-16T07:38:03;6.70;;;5.10;;
75303;SDS011;64042;50.916;6.988;2022-10-16T07:40:28;6.90;;;5.00;;
75303;SDS011;64042;50.916;6.988;2022-10-16T07:42:53;8.57;;;4.57;;
75303;SDS011;64042;50.916;6.988;2022-10-16T07:45:19;6.30;;;4.77;;
75303;SDS011;64042;50.916;6.988;2022-10-16T07:47:44;6.27;;;4.60;;
75303;SDS011;64042;50.916;6.988;2022-10-16T07:50:09;6.25;;;4.45;;
75303;SDS011;64042;50.916;6.988;2022-10-16T07:52:35;6.68;;;4.88;;
75303;SDS011;64042;50.916;6.988;2022-10-16T07:55:00;5.93;;;4.73;;
75303;SDS011;64042;50.916;6.988;2022-10-16T07:57:25;6.13;;;5.27;;
75303;SDS011;64042;50.916;6.988;2022-10-16T07:59:50;6.57;;;4.97;;
75303;SDS011;64042;50.916;6.988;2022-10-16T08:02:16;7.23;;;5.03;;
75303;SDS011;64042;50.916;6.988;2022-10-16T08:04:41;6.40;;;5.03;;
75303;SDS011;64042;50.916;6.988;2022-10-16T08:07:07;6.38;;;4.32;;
75303;SDS011;64042;50.916;6.988;2022-10-16T08:09:33;6.43;;;4.65;;
75303;SDS011;64042;50.916;6.988;2022-10-16T08:11:58;6.50;;;3.97;;
75303;SDS011;64042;50.916;6.988;2022-10-16T08:14:24;5.17;;;4.63;;
75303;SDS011;64042;50.916;6.988;2022-10-16T08:16:49;6.70;;;5.07;;
75303;SDS011;64042;50.916;6.988;2022-10-16T08:19:14;7.03;;;4.87;;
75303;SDS011;64042;50.916;6.988;2022-10-16T08:21:40;5.80;;;4.95;;
75303;SDS011;64042;50.916;6.988;2022-10-16T08:24:06;7.07;;;5.03;;
75303;SDS011;64042;50.916;6.988;2022-10-16T08:26:31;7.00;;;5.40;;
75303;SDS011;64042;50.916;6.988;2022-10-16T08:28:56;5.13;;;4.23;;
75303;SDS011;64042;50.916;6.988;2022-10-16T08:31:22;5.63;;;4.43;;
75303;SDS011;64042;50.916;6.988;2022-10-16T08:33:47;5.65;;;3.70;;
75303;SDS011;64042;50.916;6.988;2022-10-16T08:36:13;4.95;;;4.43;;
75303;SDS011;64042;50.916;6.988;2022-10-16T08:38:39;5.35;;;4.85;;
75303;SDS011;64042;50.916;6.988;2022-10-16T08:41:16;4.15;;;3.58;;
75303;SDS011;64042;50.916;6.988;2022-10-16T08:44:13;9.20;;;5.82;;
75303;SDS011;64042;50.916;6.988;2022-10-16T08:49:40;6.57;;;5.40;;
75303;SDS011;64042;50.916;6.988;2022-10-16T08:52:10;6.40;;;4.18;;
75303;SDS011;64042;50.916;6.988;2022-10-16T08:54:43;4.35;;;3.92;;
75303;SDS011;64042;50.916;6.988;2022-10-16T08:57:19;5.57;;;5.07;;
75303;SDS011;64042;50.916;6.988;2022-10-16T08:59:46;5.65;;;5.15;;
75303;SDS011;64042;50.916;6.988;2022-10-16T09:04:54;4.07;;;2.78;;
75303;SDS011;64042;50.916;6.988;2022-10-16T09:07:46;5.63;;;4.13;;
75303;SDS011;64042;50.916;6.988;2022-10-16T09:16:00;5.63;;;4.95;;
75303;SDS011;64042;50.916;6.988;2022-10-16T09:21:13;5.50;;;5.07;;
75303;SDS011;64042;50.916;6.988;2022-10-16T09:23:41;4.82;;;4.25;;
75303;SDS011;64042;50.916;6.988;2022-10-16T09:26:09;5.45;;;4.97;;
75303;SDS011;64042;50.916;6.988;2022-10-16T09:28:37;5.75;;;5.22;;
75303;SDS011;64042;50.916;6.988;2022-10-16T09:31:02;4.93;;;4.53;;
75303;SDS011;64042;50.916;6.988;2022-10-16T09:33:29;8.57;;;7.53;;
75303;SDS011;64042;50.916;6.988;2022-10-16T09:35:58;4.70;;;4.30;;
75303;SDS011;64042;50.916;6.988;2022-10-16T09:38:31;6.38;;;4.32;;
75303;SDS011;64042;50.916;6.988;2022-10-16T09:40:58;5.05;;;4.55;;
75303;SDS011;64042;50.916;6.988;2022-10-16T09:46:00;5.88;;;4.82;;
75303;SDS011;64042;50.916;6.988;2022-10-16T09:51:01;4.82;;;4.43;;
75303;SDS011;64042;50.916;6.988;2022-10-16T09:53:41;5.45;;;5.05;;
75303;SDS011;64042;50.916;6.988;2022-10-16T09:56:09;5.43;;;4.97;;
75303;SDS011;64042;50.916;6.988;2022-10-16T09:58:38;4.95;;;3.97;;
75303;SDS011;64042;50.916;6.988;2022-10-16T10:01:11;4.28;;;3.92;;
75303;SDS011;64042;50.916;6.988;2022-10-16T10:03:39;4.18;;;3.80;;
75303;SDS011;64042;50.916;6.988;2022-10-16T10:06:07;4.55;;;4.25;;
75303;SDS011;64042;50.916;6.988;2022-10-16T10:11:37;4.53;;;4.05;;
75303;SDS011;64042;50.916;6.988;2022-10-16T10:14:06;6.05;;;5.60;;
75303;SDS011;64042;50.916;6.988;2022-10-16T10:16:40;3.85;;;3.53;;
75303;SDS011;64042;50.916;6.988;2022-10-16T10:19:09;5.57;;;3.87;;
75303;SDS011;64042;50.916;6.988;2022-10-16T10:21:39;4.45;;;4.05;;
75303;SDS011;64042;50.916;6.988;2022-10-16T10:24:04;4.70;;;4.33;;
75303;SDS011;64042;50.916;6.988;2022-10-16T10:26:30;3.42;;;3.13;;
75303;SDS011;64042;50.916;6.988;2022-10-16T10:29:04;4.03;;;3.55;;
75303;SDS011;64042;50.916;6.988;2022-10-16T10:31:43;4.55;;;4.13;;
75303;SDS011;64042;50.916;6.988;2022-10-16T10:37:02;3.50;;;3.17;;
75303;SDS011;64042;50.916;6.988;2022-10-16T10:39:43;4.40;;;4.10;;
75303;SDS011;64042;50.916;6.988;2022-10-16T10:45:17;3.65;;;3.33;;
75303;SDS011;64042;50.916;6.988;2022-10-16T10:47:47;4.30;;;3.90;;
75303;SDS011;64042;50.916;6.988;2022-10-16T10:51:19;4.60;;;4.20;;
75303;SDS011;64042;50.916;6.988;2022-10-16T10:53:44;3.78;;;3.47;;
75303;SDS011;64042;50.916;6.988;2022-10-16T11:02:36;3.88;;;3.58;;
75303;SDS011;64042;50.916;6.988;2022-10-16T11:05:40;5.20;;;4.80;;
75303;SDS011;64042;50.916;6.988;2022-10-16T11:10:53;3.35;;;3.05;;
75303;SDS011;64042;50.916;6.988;2022-10-16T11:13:22;3.90;;;3.60;;
75303;SDS011;64042;50.916;6.988;2022-10-16T11:15:55;3.00;;;2.75;;
75303;SDS011;64042;50.916;6.988;2022-10-16T11:18:30;4.57;;;3.60;;
75303;SDS011;64042;50.916;6.988;2022-10-16T11:21:00;4.32;;;2.78;;
75303;SDS011;64042;50.916;6.988;2022-10-16T11:23:31;2.28;;;1.90;;
75303;SDS011;64042;50.916;6.988;2022-10-16T11:26:02;4.20;;;3.90;;
75303;SDS011;64042;50.916;6.988;2022-10-16T11:28:32;3.80;;;3.50;;
75303;SDS011;64042;50.916;6.988;2022-10-16T11:31:07;5.00;;;3.40;;
75303;SDS011;64042;50.916;6.988;2022-10-16T11:39:24;4.53;;;4.07;;
75303;SDS011;64042;50.916;6.988;2022-10-16T11:41:52;4.22;;;3.70;;
75303;SDS011;64042;50.916;6.988;2022-10-16T11:49:30;4.10;;;3.70;;
75303;SDS011;64042;50.916;6.988;2022-10-16T11:52:07;2.55;;;2.30;;
75303;SDS011;64042;50.916;6.988;2022-10-16T11:54:40;6.35;;;5.85;;
75303;SDS011;64042;50.916;6.988;2022-10-16T11:57:16;2.78;;;2.55;;
75303;SDS011;64042;50.916;6.988;2022-10-16T12:05:32;4.68;;;4.38;;
75303;SDS011;64042;50.916;6.988;2022-10-16T12:10:36;4.97;;;4.68;;
75303;SDS011;64042;50.916;6.988;2022-10-16T12:13:48;4.32;;;4.03;;
75303;SDS011;64042;50.916;6.988;2022-10-16T12:18:36;3.38;;;3.17;;
75303;SDS011;64042;50.916;6.988;2022-10-16T12:21:01;3.80;;;3.53;;
75303;SDS011;64042;50.916;6.988;2022-10-16T12:23:32;3.75;;;3.45;;
75303;SDS011;64042;50.916;6.988;2022-10-16T12:25:58;4.45;;;3.90;;
75303;SDS011;64042;50.916;6.988;2022-10-16T12:28:28;4.68;;;4.35;;
75303;SDS011;64042;50.916;6.988;2022-10-16T12:30:59;4.88;;;3.45;;
75303;SDS011;64042;50.916;6.988;2022-10-16T12:33:30;2.95;;;2.22;;
75303;SDS011;64042;50.916;6.988;2022-10-16T12:35:56;4.03;;;3.53;;
75303;SDS011;64042;50.916;6.988;2022-10-16T12:38:45;5.53;;;5.22;;
75303;SDS011;64042;50.916;6.988;2022-10-16T12:41:11;4.00;;;3.72;;
75303;SDS011;64042;50.916;6.988;2022-10-16T12:48:36;3.97;;;3.67;;
75303;SDS011;64042;50.916;6.988;2022-10-16T12:51:09;3.55;;;2.53;;
75303;SDS011;64042;50.916;6.988;2022-10-16T12:54:03;3.47;;;3.22;;
75303;SDS011;64042;50.916;6.988;2022-10-16T13:07:47;4.18;;;3.78;;
75303;SDS011;64042;50.916;6.988;2022-10-16T13:18:32;4.18;;;3.88;;
75303;SDS011;64042;50.916;6.988;2022-10-16T13:21:20;3.58;;;3.38;;
75303;SDS011;64042;50.916;6.988;2022-10-16T13:29:22;3.25;;;2.97;;
75303;SDS011;64042;50.916;6.988;2022-10-16T13:31:48;2.65;;;2.42;;
75303;SDS011;64042;50.916;6.988;2022-10-16T13:34:17;3.05;;;2.85;;
75303;SDS011;64042;50.916;6.988;2022-10-16T13:36:45;5.45;;;5.05;;
75303;SDS011;64042;50.916;6.988;2022-10-16T13:44:54;3.55;;;3.05;;
75303;SDS011;64042;50.916;6.988;2022-10-16T13:47:21;3.65;;;2.75;;
75303;SDS011;64042;50.916;6.988;2022-10-16T13:49:58;3.35;;;3.15;;
75303;SDS011;64042;50.916;6.988;2022-10-16T13:52:29;3.63;;;3.33;;
75303;SDS011;64042;50.916;6.988;2022-10-16T13:54:55;4.38;;;4.15;;
75303;SDS011;64042;50.916;6.988;2022-10-16T13:57:21;3.38;;;3.03;;
75303;SDS011;64042;50.916;6.988;2022-10-16T13:59:47;3.25;;;1.77;;
75303;SDS011;64042;50.916;6.988;2022-10-16T14:02:25;3.70;;;3.40;;
75303;SDS011;64042;50.916;6.988;2022-10-16T14:04:52;3.15;;;2.90;;
75303;SDS011;64042;50.916;6.988;2022-10-16T14:07:29;3.13;;;2.65;;
75303;SDS011;64042;50.916;6.988;2022-10-16T14:09:56;3.42;;;3.08;;
75303;SDS011;64042;50.916;6.988;2022-10-16T14:12:29;3.45;;;3.25;;
75303;SDS011;64042;50.916;6.988;2022-10-16T14:14:54;3.13;;;2.85;;
75303;SDS011;64042;50.916;6.988;2022-10-16T14:17:24;3.58;;;3.38;;
75303;SDS011;64042;50.916;6.988;2022-10-16T14:19:52;2.42;;;2.22;;
75303;SDS011;64042;50.916;6.988;2022-10-16T14:22:36;2.38;;;1.63;;
75303;SDS011;64042;50.916;6.988;2022-10-16T14:25:18;3.85;;;3.55;;
75303;SDS011;64042;50.916;6.988;2022-10-16T14:27:45;3.00;;;2.85;;
75303;SDS011;64042;50.916;6.988;2022-10-16T14:30:22;4.75;;;4.45;;
75303;SDS011;64042;50.916;6.988;2022-10-16T14:32:58;3.30;;;3.00;;
75303;SDS011;64042;50.916;6.988;2022-10-16T14:35:26;4.18;;;3.03;;
75303;SDS011;64042;50.916;6.988;2022-10-16T14:37:52;3.38;;;3.17;;
75303;SDS011;64042;50.916;6.988;2022-10-16T14:40:18;1.92;;;1.73;;
75303;SDS011;64042;50.916;6.988;2022-10-16T14:42:46;3.30;;;3.10;;
75303;SDS011;64042;50.916;6.988;2022-10-16T14:45:11;4.45;;;3.58;;
75303;SDS011;64042;50.916;6.988;2022-10-16T14:47:37;5.73;;;5.10;;
75303;SDS011;64042;50.916;6.988;2022-10-16T14:50:13;2.90;;;2.70;;
75303;SDS011;64042;50.916;6.988;2022-10-16T14:52:38;3.45;;;3.25;;
75303;SDS011;64042;50.916;6.988;2022-10-16T14:55:04;3.10;;;2.90;;
75303;SDS011;64042;50.916;6.988;2022-10-16T14:57:30;3.08;;;2.88;;
75303;SDS011;64042;50.916;6.988;2022-10-16T14:59:58;3.17;;;2.88;;
75303;SDS011;64042;50.916;6.988;2022-10-16T15:02:35;2.40;;;2.07;;
75303;SDS011;64042;50.916;6.988;2022-10-16T15:07:40;2.63;;;2.42;;
75303;SDS011;64042;50.916;6.988;2022-10-16T15:10:05;3.38;;;3.17;;
75303;SDS011;64042;50.916;6.988;2022-10-16T15:12:31;3.78;;;3.58;;
75303;SDS011;64042;50.916;6.988;2022-10-16T15:14:57;3.00;;;2.80;;
75303;SDS011;64042;50.916;6.988;2022-10-16T15:17:22;3.23;;;3.03;;
75303;SDS011;64042;50.916;6.988;2022-10-16T15:19:47;3.27;;;2.97;;
75303;SDS011;64042;50.916;6.988;2022-10-16T15:22:12;3.97;;;3.67;;
75303;SDS011;64042;50.916;6.988;2022-10-16T15:24:38;3.17;;;2.97;;
75303;SDS011;64042;50.916;6.988;2022-10-16T15:27:03;1.60;;;1.50;;
75303;SDS011;64042;50.916;6.988;2022-10-16T15:29:28;2.60;;;2.40;;
75303;SDS011;64042;50.916;6.988;2022-10-16T15:31:54;3.38;;;3.17;;
75303;SDS011;64042;50.916;6.988;2022-10-16T15:34:19;2.87;;;2.67;;
75303;SDS011;64042;50.916;6.988;2022-10-16T15:36:44;3.20;;;3.00;;
75303;SDS011;64042;50.916;6.988;2022-10-16T15:39:12;3.33;;;3.10;;
75303;SDS011;64042;50.916;6.988;2022-10-16T15:41:41;2.67;;;2.47;;
75303;SDS011;64042;50.916;6.988;2022-10-16T15:44:07;2.78;;;2.65;;
75303;SDS011;64042;50.916;6.988;2022-10-16T15:46:32;3.78;;;3.58;;
75303;SDS011;64042;50.916;6.988;2022-10-16T15:48:59;3.70;;;2.13;;
75303;SDS011;64042;50.916;6.988;2022-10-16T15:51:25;2.67;;;2.47;;
75303;SDS011;64042;50.916;6.988;2022-10-16T15:56:18;3.00;;;2.83;;
75303;SDS011;64042;50.916;6.988;2022-10-16T15:58:44;3.85;;;3.55;;
75303;SDS011;64042;50.916;6.988;2022-10-16T16:01:09;3.25;;;3.00;;
75303;SDS011;64042;50.916;6.988;2022-10-16T16:03:36;2.90;;;2.70;;
75303;SDS011;64042;50.916;6.988;2022-10-16T16:06:06;3.20;;;3.00;;
75303;SDS011;64042;50.916;6.988;2022-10-16T16:08:32;3.28;;;2.60;;
75303;SDS011;64042;50.916;6.988;2022-10-16T16:10:58;2.90;;;2.70;;
75303;SDS011;64042;50.916;6.988;2022-10-16T16:13:28;3.15;;;2.95;;
75303;SDS011;64042;50.916;6.988;2022-10-16T16:15:53;3.27;;;3.07;;
75303;SDS011;64042;50.916;6.988;2022-10-16T16:18:18;2.92;;;2.72;;
75303;SDS011;64042;50.916;6.988;2022-10-16T16:20:44;2.25;;;2.08;;
75303;SDS011;64042;50.916;6.988;2022-10-16T16:23:09;3.67;;;3.40;;
75303;SDS011;64042;50.916;6.988;2022-10-16T16:25:34;3.70;;;3.50;;
75303;SDS011;64042;50.916;6.988;2022-10-16T16:27:59;4.50;;;2.25;;
75303;SDS011;64042;50.916;6.988;2022-10-16T16:30:25;1.65;;;1.55;;
75303;SDS011;64042;50.916;6.988;2022-10-16T16:32:50;2.07;;;1.97;;
75303;SDS011;64042;50.916;6.988;2022-10-16T16:35:15;2.57;;;2.20;;
75303;SDS011;64042;50.916;6.988;2022-10-16T16:37:41;2.47;;;2.37;;
75303;SDS011;64042;50.916;6.988;2022-10-16T16:40:06;2.20;;;2.10;;
75303;SDS011;64042;50.916;6.988;2022-10-16T16:42:31;2.42;;;2.22;;
75303;SDS011;64042;50.916;6.988;2022-10-16T16:44:57;2.85;;;2.65;;
75303;SDS011;64042;50.916;6.988;2022-10-16T16:47:22;1.83;;;1.73;;